Time;durP1;ratioP1;P1;durP2;ratioP2;P2;SDS_P1;SDS_P2;PMS_P1;PMS_P2;Temp;Humidity;BMP_temperature;BMP_pressure;BME280_temperature;BME280_humidity;BME280_pressure;Samples;Min_cycle;Max_cycle;Signal;HPM_P1;HPM_P2
2021/03/09 00:01:10;;;;;;;15.02;6.95;;;;;;;-142.13;100.00;58370.81;4972979;28;20624;-69
2021/03/09 00:03:37;;;;;;;15.32;8.00;;;;;;;-142.13;100.00;58370.81;4996063;28;20739;-69
2021/03/09 00:06:05;;;;;;;17.00;7.60;;;;;;;-142.13;100.00;58370.81;4980902;28;20728;-69
2021/03/09 00:08:32;;;;;;;14.75;7.40;;;;;;;-142.13;100.00;58370.81;4981148;28;20229;-71
2021/03/09 00:10:59;;;;;;;17.98;8.43;;;;;;;-142.13;100.00;58370.81;4987289;28;20713;-71
2021/03/09 00:13:26;;;;;;;17.40;8.25;;;;;;;-142.13;100.00;58370.81;4979953;28;20221;-71
2021/03/09 00:15:53;;;;;;;17.65;7.75;;;;;;;-142.13;100.00;58370.81;4970821;28;20190;-71
2021/03/09 00:18:20;;;;;;;14.90;7.15;;;;;;;-142.13;100.00;58370.81;4984004;28;20255;-68
2021/03/09 00:20:47;;;;;;;15.18;6.95;;;;;;;-142.13;100.00;58370.81;4981811;28;20206;-69
2021/03/09 00:23:14;;;;;;;19.30;8.25;;;;;;;-142.13;100.00;58370.81;4984996;28;20222;-69
2021/03/09 00:25:41;;;;;;;16.55;6.97;;;;;;;-142.13;100.00;58370.81;4971626;28;20688;-69
2021/03/09 00:28:08;;;;;;;19.08;7.10;;;;;;;-142.13;100.00;58370.81;4986136;28;20230;-70
2021/03/09 00:30:35;;;;;;;14.60;7.18;;;;;;;-142.13;100.00;58370.81;4982033;28;20502;-70
2021/03/09 00:33:03;;;;;;;16.98;8.00;;;;;;;-142.13;100.00;58370.81;4982723;28;20622;-70
2021/03/09 00:35:30;;;;;;;17.88;7.47;;;;;;;-142.13;100.00;58370.81;4994387;28;20185;-70
2021/03/09 00:37:57;;;;;;;13.82;7.10;;;;;;;-142.13;100.00;58370.81;4993947;28;20348;-70
2021/03/09 00:40:24;;;;;;;11.60;6.55;;;;;;;-142.13;100.00;58370.81;4995855;28;20617;-70
2021/03/09 00:42:51;;;;;;;12.20;6.78;;;;;;;-142.13;100.00;58370.81;4993504;28;20218;-70
2021/03/09 00:45:18;;;;;;;14.07;6.80;;;;;;;-142.13;100.00;58370.81;4980951;28;20540;-70
2021/03/09 00:47:55;;;;;;;17.80;6.70;;;;;;;-142.13;100.00;58370.81;4976252;28;20331;-70
2021/03/09 00:50:23;;;;;;;14.15;6.65;;;;;;;-142.13;100.00;58370.81;4977616;28;20275;-70
2021/03/09 00:52:50;;;;;;;16.05;6.57;;;;;;;-142.13;100.00;58370.81;4992077;28;20241;-70
2021/03/09 00:55:17;;;;;;;13.90;8.15;;;;;;;-142.13;100.00;58370.81;4983483;28;20186;-70
2021/03/09 00:57:44;;;;;;;13.82;7.00;;;;;;;-142.13;100.00;58370.81;4995895;28;20735;-70
2021/03/09 01:00:12;;;;;;;15.00;6.20;;;;;;;-142.13;100.00;58370.81;4988158;28;20194;-70
2021/03/09 01:02:38;;;;;;;17.88;6.60;;;;;;;-142.13;100.00;58370.81;4982416;28;20295;-69
2021/03/09 01:05:07;;;;;;;16.08;7.22;;;;;;;-142.13;100.00;58370.81;4981166;28;20186;-69
2021/03/09 01:07:40;;;;;;;13.73;7.10;;;;;;;-142.13;100.00;58370.81;4969137;28;20656;-70
2021/03/09 01:10:08;;;;;;;24.83;8.35;;;;;;;-142.13;100.00;58370.81;4984376;28;20189;-70
2021/03/09 01:12:35;;;;;;;17.67;8.13;;;;;;;-142.13;100.00;58370.81;4994902;28;20221;-71
2021/03/09 01:15:04;;;;;;;15.93;8.00;;;;;;;-142.13;100.00;58370.81;4993121;28;20190;-70
2021/03/09 01:17:31;;;;;;;14.02;7.40;;;;;;;-142.13;100.00;58370.81;4983899;28;20225;-69
2021/03/09 01:19:58;;;;;;;13.20;6.85;;;;;;;-142.13;100.00;58370.81;4982045;28;20258;-70
2021/03/09 01:22:25;;;;;;;15.30;7.43;;;;;;;-142.13;100.00;58370.81;4979048;28;20222;-70
2021/03/09 01:24:53;;;;;;;18.00;8.20;;;;;;;-142.13;100.00;58370.81;4981346;28;20212;-70
2021/03/09 01:27:20;;;;;;;12.32;7.88;;;;;;;-142.13;100.00;58370.81;4984465;28;20597;-70
2021/03/09 01:29:47;;;;;;;18.45;7.13;;;;;;;-142.13;100.00;58370.81;4980335;28;20194;-69
2021/03/09 01:32:14;;;;;;;15.48;7.57;;;;;;;-142.13;100.00;58370.81;4982221;28;20601;-69
2021/03/09 01:34:41;;;;;;;15.20;7.18;;;;;;;-142.13;100.00;58370.81;4981647;28;20798;-69
2021/03/09 01:37:08;;;;;;;12.48;7.03;;;;;;;-142.13;100.00;58370.81;4988954;28;20696;-69
2021/03/09 01:39:35;;;;;;;16.15;8.00;;;;;;;-142.13;100.00;58370.81;4984314;28;20198;-69
2021/03/09 01:42:03;;;;;;;17.15;7.95;;;;;;;-142.13;100.00;58370.81;4973585;28;20547;-69
2021/03/09 01:44:30;;;;;;;16.65;7.78;;;;;;;-142.13;100.00;58370.81;4980121;28;20248;-69
2021/03/09 01:47:00;;;;;;;14.30;6.93;;;;;;;-142.13;100.00;58370.81;4962971;28;20912;-69
2021/03/09 01:49:30;;;;;;;15.55;7.25;;;;;;;-142.13;100.00;58370.81;4978536;28;20186;-69
2021/03/09 01:51:57;;;;;;;13.90;7.30;;;;;;;-142.13;100.00;58370.81;4985371;28;20748;-69
2021/03/09 01:54:24;;;;;;;13.52;6.90;;;;;;;-142.13;100.00;58370.81;4995976;28;20706;-69
2021/03/09 01:56:52;;;;;;;17.92;7.38;;;;;;;-142.13;100.00;58370.81;4993987;28;20292;-69
2021/03/09 01:59:20;;;;;;;12.30;7.00;;;;;;;-142.13;100.00;58370.81;4983036;28;20640;-69
2021/03/09 02:01:47;;;;;;;14.32;6.85;;;;;;;-142.13;100.00;58370.81;4979198;28;20717;-69
2021/03/09 02:04:15;;;;;;;20.67;8.15;;;;;;;-142.13;100.00;58370.81;4988942;28;20524;-69
2021/03/09 02:06:42;;;;;;;13.50;7.10;;;;;;;-142.13;100.00;58370.81;4992214;28;20196;-69
2021/03/09 02:09:09;;;;;;;11.40;6.00;;;;;;;-142.13;100.00;58370.81;4993223;28;20181;-68
2021/03/09 02:11:47;;;;;;;17.25;7.10;;;;;;;-142.13;100.00;58370.81;4981107;28;20240;-70
2021/03/09 02:14:23;;;;;;;15.80;7.15;;;;;;;-142.13;100.00;58370.81;4981612;28;20217;-70
2021/03/09 02:16:57;;;;;;;15.90;6.65;;;;;;;-142.13;100.00;58370.81;4984117;28;20235;-70
2021/03/09 02:20:02;;;;;;;12.98;6.90;;;;;;;-142.13;100.00;58370.81;4965714;28;20613;-69
2021/03/09 02:22:55;;;;;;;17.70;8.23;;;;;;;-142.13;100.00;58370.81;4964111;28;20759;-70
2021/03/09 02:25:41;;;;;;;11.93;6.85;;;;;;;-142.13;100.00;58370.81;4979248;28;20189;-70
2021/03/09 02:28:13;;;;;;;9.93;5.95;;;;;;;-142.13;100.00;58370.81;4983031;28;20248;-70
2021/03/09 02:30:44;;;;;;;13.65;6.57;;;;;;;-142.13;100.00;58370.81;4987813;28;20187;-70
2021/03/09 02:33:14;;;;;;;12.68;6.93;;;;;;;-142.13;100.00;58370.81;4978248;28;20249;-70
2021/03/09 02:35:47;;;;;;;15.38;6.68;;;;;;;-142.13;100.00;58370.81;4974107;28;20204;-69
2021/03/09 02:38:22;;;;;;;12.88;6.45;;;;;;;-142.13;100.00;58370.81;4985224;28;20782;-69
2021/03/09 02:40:54;;;;;;;10.45;6.03;;;;;;;-142.13;100.00;58370.81;4989247;28;20506;-69
2021/03/09 02:43:24;;;;;;;17.25;7.30;;;;;;;-142.13;100.00;58370.81;4989062;28;20279;-69
2021/03/09 02:45:53;;;;;;;13.93;6.00;;;;;;;-142.13;100.00;58370.81;4988393;28;20203;-69
2021/03/09 02:48:22;;;;;;;11.52;5.57;;;;;;;-142.13;100.00;58370.81;4988598;28;20509;-69
2021/03/09 02:50:52;;;;;;;15.48;7.35;;;;;;;-142.13;100.00;58370.81;4980766;28;20255;-69
2021/03/09 02:53:19;;;;;;;19.45;7.95;;;;;;;-142.13;100.00;58370.81;4981151;28;20672;-70
2021/03/09 02:55:49;;;;;;;14.10;6.55;;;;;;;-142.13;100.00;58370.81;4995540;28;20394;-70
2021/03/09 02:58:19;;;;;;;12.95;6.90;;;;;;;-142.13;100.00;58370.81;4993992;28;20734;-70
2021/03/09 03:00:50;;;;;;;11.25;6.40;;;;;;;-142.13;100.00;58370.81;4996725;28;20242;-70
2021/03/09 03:03:44;;;;;;;16.25;7.03;;;;;;;-142.13;100.00;58370.81;4990390;28;20543;-69
2021/03/09 03:06:13;;;;;;;18.98;6.75;;;;;;;-142.13;100.00;58370.81;4997840;28;20519;-69
2021/03/09 03:08:41;;;;;;;14.75;7.00;;;;;;;-142.13;100.00;58370.81;4989595;28;20520;-70
2021/03/09 03:11:09;;;;;;;12.93;6.40;;;;;;;-142.13;100.00;58370.81;4990878;28;20621;-70
2021/03/09 03:13:36;;;;;;;23.00;7.10;;;;;;;-142.13;100.00;58370.81;4990900;28;20752;-70
2021/03/09 03:16:05;;;;;;;17.15;8.02;;;;;;;-142.13;100.00;58370.81;4985443;28;20618;-70
2021/03/09 03:18:37;;;;;;;19.13;6.85;;;;;;;-142.13;100.00;58370.81;4985200;28;20225;-70
2021/03/09 03:21:08;;;;;;;17.80;7.07;;;;;;;-142.13;100.00;58370.81;4966020;28;20303;-72
2021/03/09 03:23:36;;;;;;;15.95;7.18;;;;;;;-142.13;100.00;58370.81;4985231;28;20217;-70
2021/03/09 03:26:06;;;;;;;14.63;7.05;;;;;;;-142.13;100.00;58370.81;4994118;28;20514;-69
2021/03/09 03:28:34;;;;;;;13.10;7.45;;;;;;;-142.13;100.00;58370.81;4995543;28;20233;-68
2021/03/09 03:31:04;;;;;;;12.98;6.97;;;;;;;-142.13;100.00;58370.81;4997346;28;20190;-69
2021/03/09 03:33:32;;;;;;;14.60;7.18;;;;;;;-142.13;100.00;58370.81;4995280;28;20587;-70
2021/03/09 03:36:03;;;;;;;17.88;6.47;;;;;;;-142.13;100.00;58370.81;4982490;28;20331;-69
2021/03/09 03:38:33;;;;;;;12.77;5.90;;;;;;;-142.13;100.00;58370.81;4965739;28;20225;-69
2021/03/09 03:41:01;;;;;;;15.32;6.63;;;;;;;-142.13;100.00;58370.81;4984552;28;20800;-71
2021/03/09 03:43:28;;;;;;;15.70;7.18;;;;;;;-142.13;100.00;58370.81;4990137;28;20722;-70
2021/03/09 03:45:56;;;;;;;14.32;5.82;;;;;;;-142.13;100.00;58370.81;4988968;28;20494;-70
2021/03/09 03:48:24;;;;;;;20.05;7.47;;;;;;;-142.13;100.00;58370.81;4993250;28;20226;-69
2021/03/09 03:50:53;;;;;;;12.93;7.68;;;;;;;-142.13;100.00;58370.81;4996083;28;20574;-70
2021/03/09 03:53:25;;;;;;;13.35;6.95;;;;;;;-142.13;100.00;58370.81;5000489;28;20510;-70
2021/03/09 03:56:06;;;;;;;13.32;6.53;;;;;;;-142.13;100.00;58370.81;4992877;28;20679;-70
2021/03/09 03:58:39;;;;;;;16.58;7.00;;;;;;;-142.13;100.00;58370.81;4986387;28;20227;-70
2021/03/09 04:01:09;;;;;;;16.70;7.57;;;;;;;-142.13;100.00;58370.81;4981663;28;20201;-70
2021/03/09 04:03:40;;;;;;;16.40;7.13;;;;;;;-142.13;100.00;58370.81;4990483;28;20241;-69
2021/03/09 04:06:08;;;;;;;13.57;7.07;;;;;;;-142.13;100.00;58370.81;4988015;28;20665;-70
2021/03/09 04:08:38;;;;;;;16.17;6.32;;;;;;;-142.13;100.00;58370.81;4970435;28;20645;-69
2021/03/09 04:11:07;;;;;;;21.60;6.90;;;;;;;-142.13;100.00;58370.81;4980223;28;20196;-70
2021/03/09 04:13:41;;;;;;;16.95;7.18;;;;;;;-142.13;100.00;58370.81;4981224;28;20671;-69
2021/03/09 04:16:09;;;;;;;13.20;5.90;;;;;;;-142.13;100.00;58370.81;4985998;28;20198;-69
2021/03/09 04:18:37;;;;;;;14.00;6.32;;;;;;;-142.13;100.00;58370.81;4981590;28;20625;-71
2021/03/09 04:21:06;;;;;;;19.40;7.20;;;;;;;-142.13;100.00;58370.81;4987833;28;20310;-71
2021/03/09 04:23:35;;;;;;;16.98;6.65;;;;;;;-142.13;100.00;58370.81;4991466;28;20217;-71
2021/03/09 04:26:03;;;;;;;15.82;6.97;;;;;;;-142.13;100.00;58370.81;4979174;28;20207;-70
2021/03/09 04:28:32;;;;;;;13.68;7.05;;;;;;;-142.13;100.00;58370.81;4984889;28;20289;-71
2021/03/09 04:31:00;;;;;;;14.02;6.93;;;;;;;-142.13;100.00;58370.81;4995501;28;20832;-70
2021/03/09 04:33:29;;;;;;;13.25;6.85;;;;;;;-142.13;100.00;58370.81;4971823;28;20699;-70
2021/03/09 04:35:57;;;;;;;14.15;6.70;;;;;;;-142.13;100.00;58370.81;4995054;28;20619;-70
2021/03/09 04:38:26;;;;;;;15.07;7.68;;;;;;;-142.13;100.00;58370.81;4982827;28;20223;-69
2021/03/09 04:40:55;;;;;;;14.27;7.35;;;;;;;-142.13;100.00;58370.81;4996813;28;20592;-70
2021/03/09 04:43:23;;;;;;;15.27;6.55;;;;;;;-142.13;100.00;58370.81;4989279;28;20227;-70
2021/03/09 04:45:51;;;;;;;16.10;6.45;;;;;;;-142.13;100.00;58370.81;4984145;28;20619;-69
2021/03/09 04:48:18;;;;;;;14.55;6.93;;;;;;;-142.13;100.00;58370.81;4979649;28;20781;-68
2021/03/09 04:51:01;;;;;;;15.95;6.80;;;;;;;-142.13;100.00;58370.81;4985875;28;20956;-69
2021/03/09 04:53:29;;;;;;;14.32;7.18;;;;;;;-142.13;100.00;58370.81;4979495;28;20649;-69
2021/03/09 04:55:58;;;;;;;12.60;7.55;;;;;;;-142.13;100.00;58370.81;4989002;28;20605;-70
2021/03/09 04:58:25;;;;;;;16.23;7.70;;;;;;;-142.13;100.00;58370.81;4989147;28;20228;-71
2021/03/09 05:00:54;;;;;;;16.27;7.95;;;;;;;-142.13;100.00;58370.81;4980631;28;20271;-69
2021/03/09 05:03:23;;;;;;;15.02;7.28;;;;;;;-142.13;100.00;58370.81;4993243;28;20678;-70
2021/03/09 05:05:50;;;;;;;14.02;7.88;;;;;;;-142.13;100.00;58370.81;4976967;28;20218;-70
2021/03/09 05:08:17;;;;;;;14.52;7.05;;;;;;;-142.13;100.00;58370.81;4991620;28;20224;-69
2021/03/09 05:10:44;;;;;;;16.92;7.55;;;;;;;-142.13;100.00;58370.81;4977260;28;20358;-70
2021/03/09 05:13:11;;;;;;;15.13;7.00;;;;;;;-142.13;100.00;58370.81;4984752;28;20551;-70
2021/03/09 05:15:39;;;;;;;13.70;7.60;;;;;;;-142.13;100.00;58370.81;4984436;28;20247;-70
2021/03/09 05:18:07;;;;;;;14.25;6.85;;;;;;;-142.13;100.00;58370.81;4981449;28;20591;-70
2021/03/09 05:20:36;;;;;;;18.02;8.15;;;;;;;-142.13;100.00;58370.81;4980780;28;20644;-69
2021/03/09 05:23:03;;;;;;;18.92;7.20;;;;;;;-142.13;100.00;58370.81;4991420;28;20381;-71
2021/03/09 05:25:30;;;;;;;15.32;7.15;;;;;;;-142.13;100.00;58370.81;4992482;28;20658;-69
2021/03/09 05:27:57;;;;;;;15.98;7.72;;;;;;;-142.13;100.00;58370.81;4980631;28;20234;-70
2021/03/09 05:30:25;;;;;;;15.90;7.50;;;;;;;-142.13;100.00;58370.81;4985425;28;20332;-69
2021/03/09 05:32:52;;;;;;;15.10;6.75;;;;;;;-142.13;100.00;58370.81;4957591;28;20706;-70
2021/03/09 05:35:21;;;;;;;13.55;6.90;;;;;;;-142.13;100.00;58370.81;4996591;28;20694;-69
2021/03/09 05:37:48;;;;;;;14.88;6.80;;;;;;;-142.13;100.00;58370.81;4974706;28;20696;-69
2021/03/09 05:40:17;;;;;;;14.95;7.30;;;;;;;-142.13;100.00;58370.81;4995540;28;20203;-69
2021/03/09 05:42:47;;;;;;;21.77;8.20;;;;;;;-142.13;100.00;58370.81;4992864;28;20228;-69
2021/03/09 05:45:15;;;;;;;18.85;6.70;;;;;;;-142.13;100.00;58370.81;4972703;28;20610;-69
2021/03/09 05:47:42;;;;;;;16.17;8.57;;;;;;;-142.13;100.00;58370.81;4979958;28;20223;-70
2021/03/09 05:50:11;;;;;;;17.20;8.07;;;;;;;-142.13;100.00;58370.81;4982334;28;20616;-70
2021/03/09 05:52:46;;;;;;;18.13;8.38;;;;;;;-142.13;100.00;58370.81;4979217;28;20727;-69
2021/03/09 05:55:14;;;;;;;15.23;8.43;;;;;;;-142.13;100.00;58370.81;4980547;28;20198;-70
2021/03/09 05:57:41;;;;;;;16.90;7.80;;;;;;;-142.13;100.00;58370.81;4992146;28;20219;-69
2021/03/09 06:00:10;;;;;;;16.73;8.77;;;;;;;-142.13;100.00;58370.81;4984723;28;20196;-69
2021/03/09 06:02:37;;;;;;;16.85;9.50;;;;;;;-142.13;100.00;58370.81;4981140;28;20248;-69
2021/03/09 06:05:06;;;;;;;20.10;9.70;;;;;;;-142.13;100.00;58370.81;4982970;28;20632;-70
2021/03/09 06:07:35;;;;;;;17.73;8.50;;;;;;;-142.13;100.00;58370.81;4979165;28;20633;-69
2021/03/09 06:10:05;;;;;;;19.95;8.88;;;;;;;-142.13;100.00;58370.81;4985826;28;20196;-69
2021/03/09 06:12:32;;;;;;;18.55;9.40;;;;;;;-142.13;100.00;58370.81;4985336;28;20227;-69
2021/03/09 06:15:03;;;;;;;22.35;9.20;;;;;;;-142.13;100.00;58370.81;4989241;28;20195;-70
2021/03/09 06:17:35;;;;;;;16.88;9.80;;;;;;;-142.13;100.00;58370.81;4977378;28;20223;-70
2021/03/09 06:20:23;;;;;;;24.08;9.55;;;;;;;-142.13;100.00;58370.81;4981013;28;20182;-70
2021/03/09 06:22:52;;;;;;;18.33;10.10;;;;;;;-142.13;100.00;58370.81;4981869;28;20224;-69
2021/03/09 06:25:21;;;;;;;14.85;8.13;;;;;;;-142.13;100.00;58370.81;4965621;28;20581;-69
2021/03/09 06:27:48;;;;;;;18.88;8.70;;;;;;;-142.13;100.00;58370.81;4978988;28;20542;-70
2021/03/09 06:30:32;;;;;;;21.33;9.35;;;;;;;-142.13;100.00;58370.81;4967737;28;20537;-70
2021/03/09 06:33:00;;;;;;;22.10;10.68;;;;;;;-142.13;100.00;58370.81;4985351;28;20684;-73
2021/03/09 06:35:34;;;;;;;23.60;11.75;;;;;;;-142.13;100.00;58370.81;4984244;28;20822;-70
2021/03/09 06:38:22;;;;;;;22.05;10.77;;;;;;;-142.13;100.00;58370.81;4993476;28;20252;-70
2021/03/09 06:41:12;;;;;;;21.08;10.40;;;;;;;-142.13;100.00;58370.81;4993257;28;20497;-70
2021/03/09 06:43:40;;;;;;;21.38;10.88;;;;;;;-142.13;100.00;58370.81;4979278;28;20236;-70
2021/03/09 06:46:15;;;;;;;23.08;11.10;;;;;;;-142.13;100.00;58370.81;4994214;28;20197;-69
2021/03/09 06:48:43;;;;;;;23.35;11.77;;;;;;;-142.13;100.00;58370.81;4986609;28;20564;-69
2021/03/09 06:51:30;;;;;;;27.15;12.95;;;;;;;-142.13;100.00;58370.81;4989377;28;20623;-71
2021/03/09 06:54:06;;;;;;;32.45;13.95;;;;;;;-142.13;100.00;58370.81;4978540;28;20216;-70
2021/03/09 06:56:35;;;;;;;34.08;14.35;;;;;;;-142.13;100.00;58370.81;4989097;28;20577;-70
2021/03/09 06:59:20;;;;;;;27.38;12.73;;;;;;;-142.13;100.00;58370.81;4986962;28;20656;-70
2021/03/09 07:02:05;;;;;;;26.95;12.57;;;;;;;-142.13;100.00;58370.81;4973949;28;20619;-72
2021/03/09 07:04:33;;;;;;;24.38;11.98;;;;;;;-142.13;100.00;58370.81;4980771;28;20229;-70
2021/03/09 07:07:00;;;;;;;23.65;11.40;;;;;;;-142.13;100.00;58370.81;4960255;28;20536;-70
2021/03/09 07:09:27;;;;;;;23.00;12.13;;;;;;;-142.13;100.00;58370.81;4969321;28;20664;-70
2021/03/09 07:11:56;;;;;;;29.95;12.20;;;;;;;-142.13;100.00;58370.81;4974145;28;20210;-70
2021/03/09 07:14:24;;;;;;;28.02;12.93;;;;;;;-142.13;100.00;58370.81;4990435;28;20627;-70
2021/03/09 07:16:53;;;;;;;28.40;12.02;;;;;;;-142.13;100.00;58370.81;4979240;28;20700;-70
2021/03/09 07:19:25;;;;;;;22.48;12.93;;;;;;;-142.13;100.00;58370.81;4979772;28;20801;-69
2021/03/09 07:21:53;;;;;;;22.80;13.35;;;;;;;-142.13;100.00;58370.81;4982447;28;20806;-69
2021/03/09 07:24:21;;;;;;;24.30;12.23;;;;;;;-142.13;100.00;58370.81;4987265;28;20874;-71
2021/03/09 07:26:55;;;;;;;23.60;12.32;;;;;;;-142.13;100.00;58370.81;4992066;28;20229;-70
2021/03/09 07:29:27;;;;;;;22.73;12.20;;;;;;;-142.13;100.00;58370.81;4967763;28;20198;-71
2021/03/09 07:31:56;;;;;;;29.23;13.57;;;;;;;-142.13;100.00;58370.81;4989254;28;20293;-70
2021/03/09 07:34:26;;;;;;;27.92;11.77;;;;;;;-142.13;100.00;58370.81;4998364;28;20494;-73
2021/03/09 07:36:56;;;;;;;19.60;11.57;;;;;;;-142.13;100.00;58370.81;4980776;28;20260;-71
2021/03/09 07:39:34;;;;;;;40.90;11.30;;;;;;;-142.13;100.00;58370.81;4993410;28;20236;-70
2021/03/09 07:42:04;;;;;;;29.40;15.15;;;;;;;-142.13;100.00;58370.81;4964478;28;20287;-69
2021/03/09 07:44:32;;;;;;;26.13;13.02;;;;;;;-142.13;100.00;58370.81;4982571;28;20244;-68
2021/03/09 07:47:00;;;;;;;34.63;15.73;;;;;;;-142.13;100.00;58370.81;4995709;28;20271;-70
2021/03/09 07:49:26;;;;;;;28.50;13.50;;;;;;;-142.13;100.00;58370.81;4999412;28;20221;-71
2021/03/09 07:52:09;;;;;;;23.05;11.60;;;;;;;-142.13;100.00;58370.81;4988756;28;20532;-71
2021/03/09 07:54:35;;;;;;;25.60;13.75;;;;;;;-142.13;100.00;58370.81;4977143;28;20563;-71
2021/03/09 07:57:22;;;;;;;26.52;12.18;;;;;;;-142.13;100.00;58370.81;4995532;28;20829;-70
2021/03/09 07:59:57;;;;;;;26.45;12.40;;;;;;;-142.13;100.00;58370.81;4994961;28;20204;-71
2021/03/09 08:02:54;;;;;;;24.83;12.48;;;;;;;-142.13;100.00;58370.81;4991460;28;20683;-70
2021/03/09 08:05:23;;;;;;;38.63;17.67;;;;;;;-142.13;100.00;58370.81;4980016;28;20214;-70
2021/03/09 08:08:02;;;;;;;37.85;16.77;;;;;;;-142.13;100.00;58370.81;4994481;28;20706;-71
2021/03/09 08:10:40;;;;;;;30.33;15.52;;;;;;;-142.13;100.00;58370.81;4986901;28;20724;-70
2021/03/09 08:13:23;;;;;;;26.23;12.18;;;;;;;-142.13;100.00;58370.81;4994219;28;20243;-70
2021/03/09 08:16:11;;;;;;;31.38;15.40;;;;;;;-142.13;100.00;58370.81;4985604;28;20863;-70
2021/03/09 08:18:43;;;;;;;24.27;11.73;;;;;;;-142.13;100.00;58370.81;4986069;28;20221;-71
2021/03/09 08:21:10;;;;;;;26.27;12.80;;;;;;;-142.13;100.00;58370.81;4996392;28;20619;-71
2021/03/09 08:23:56;;;;;;;30.88;14.02;;;;;;;-142.13;100.00;58370.81;4979168;28;20244;-69
2021/03/09 08:26:44;;;;;;;32.80;13.40;;;;;;;-142.13;100.00;58370.81;4985702;28;20182;-71
2021/03/09 08:29:33;;;;;;;26.15;12.20;;;;;;;-142.13;100.00;58370.81;4985932;28;20691;-72
2021/03/09 08:32:29;;;;;;;26.38;14.20;;;;;;;-142.13;100.00;58370.81;4977628;28;20308;-70
2021/03/09 08:35:35;;;;;;;36.95;12.00;;;;;;;-142.13;100.00;58370.81;4938221;28;20276;-70
2021/03/09 08:38:17;;;;;;;24.15;12.05;;;;;;;-142.13;100.00;58370.81;4974107;28;20231;-70
2021/03/09 08:41:07;;;;;;;24.30;11.95;;;;;;;-142.13;100.00;58370.81;4985362;28;20188;-70
2021/03/09 08:43:34;;;;;;;21.02;11.73;;;;;;;-142.13;100.00;58370.81;4991387;28;20695;-71
2021/03/09 08:46:03;;;;;;;24.20;12.52;;;;;;;-142.13;100.00;58370.81;4987032;28;20256;-71
2021/03/09 08:48:54;;;;;;;27.85;14.05;;;;;;;-142.13;100.00;58370.81;4991230;28;20540;-71
2021/03/09 08:51:49;;;;;;;24.55;12.50;;;;;;;-142.13;100.00;58370.81;4984148;28;20251;-71
2021/03/09 08:54:37;;;;;;;24.80;13.38;;;;;;;-142.13;100.00;58370.81;4982722;28;20271;-70
2021/03/09 08:57:07;;;;;;;143.00;62.25;;;;;;;-142.13;100.00;58370.81;4981031;28;20624;-70
2021/03/09 08:59:35;;;;;;;133.02;58.42;;;;;;;-142.13;100.00;58370.81;4975684;28;20229;-69
2021/03/09 09:02:07;;;;;;;77.00;37.42;;;;;;;-142.13;100.00;58370.81;4991623;28;20963;-70
2021/03/09 09:04:36;;;;;;;52.53;24.45;;;;;;;-142.13;100.00;58370.81;4972128;28;20679;-71
2021/03/09 09:07:24;;;;;;;33.40;16.50;;;;;;;-142.13;100.00;58370.81;4983237;28;20604;-70
2021/03/09 09:09:52;;;;;;;29.90;13.25;;;;;;;-142.13;100.00;58370.81;4986009;28;20253;-70
2021/03/09 09:12:21;;;;;;;25.58;13.23;;;;;;;-142.13;100.00;58370.81;4979592;28;20221;-70
2021/03/09 09:15:08;;;;;;;25.52;12.95;;;;;;;-142.13;100.00;58370.81;4994221;28;20573;-70
2021/03/09 09:17:37;;;;;;;30.33;15.43;;;;;;;-142.13;100.00;58370.81;4988312;28;20874;-70
2021/03/09 09:20:08;;;;;;;20.48;12.27;;;;;;;-142.13;100.00;58370.81;4986099;28;20516;-69
2021/03/09 09:22:35;;;;;;;21.67;11.32;;;;;;;-142.13;100.00;58370.81;4979396;28;20745;-70
2021/03/09 09:25:07;;;;;;;26.52;11.80;;;;;;;-142.13;100.00;58370.81;4992844;28;20655;-69
2021/03/09 09:27:38;;;;;;;19.58;9.93;;;;;;;-142.13;100.00;58370.81;4982646;28;20727;-69
2021/03/09 09:30:08;;;;;;;22.25;9.98;;;;;;;-142.13;100.00;58370.81;4993216;28;20251;-69
2021/03/09 09:32:53;;;;;;;20.98;10.77;;;;;;;-142.13;100.00;58370.81;4982251;28;20668;-71
2021/03/09 09:35:23;;;;;;;20.10;11.23;;;;;;;-142.13;100.00;58370.81;4989291;28;20612;-70
2021/03/09 09:37:53;;;;;;;20.45;10.73;;;;;;;-142.13;100.00;58370.81;4990934;28;20234;-70
2021/03/09 09:40:23;;;;;;;20.23;11.50;;;;;;;-142.13;100.00;58370.81;4993215;28;20568;-70
2021/03/09 09:42:55;;;;;;;19.08;9.52;;;;;;;-142.13;100.00;58370.81;4968814;28;20597;-71
2021/03/09 09:45:23;;;;;;;20.10;9.73;;;;;;;-142.13;100.00;58370.81;4980004;28;20185;-71
2021/03/09 09:47:52;;;;;;;16.15;9.30;;;;;;;-142.13;100.00;58370.81;4989328;28;20220;-70
2021/03/09 09:50:19;;;;;;;16.73;8.10;;;;;;;-142.13;100.00;58370.81;4994934;28;20617;-70
2021/03/09 09:53:01;;;;;;;13.27;7.65;;;;;;;-142.13;100.00;58370.81;4981795;28;20229;-70
2021/03/09 09:55:31;;;;;;;15.57;7.15;;;;;;;-142.13;100.00;58370.81;4988219;28;20198;-69
2021/03/09 09:58:01;;;;;;;18.88;8.07;;;;;;;-142.13;100.00;58370.81;4991427;28;20369;-70
2021/03/09 10:00:32;;;;;;;10.88;6.80;;;;;;;-142.13;100.00;58370.81;4979662;28;20564;-72
2021/03/09 10:03:07;;;;;;;12.75;7.40;;;;;;;-142.13;100.00;58370.81;4992396;28;20237;-70
2021/03/09 10:05:35;;;;;;;12.85;6.82;;;;;;;-142.13;100.00;58370.81;4986571;28;20683;-69
2021/03/09 10:08:05;;;;;;;10.33;6.10;;;;;;;-142.13;100.00;58370.81;4994076;28;20420;-70
2021/03/09 10:10:33;;;;;;;11.85;5.80;;;;;;;-142.13;100.00;58370.81;4975988;28;20942;-71
2021/03/09 10:13:01;;;;;;;9.43;5.67;;;;;;;-142.13;100.00;58370.81;4986177;28;20561;-70
2021/03/09 10:15:44;;;;;;;13.87;6.20;;;;;;;-142.13;100.00;58370.81;4967280;28;20504;-69
2021/03/09 10:18:15;;;;;;;11.40;5.53;;;;;;;-142.13;100.00;58370.81;4985915;28;20526;-70
2021/03/09 10:20:43;;;;;;;6.65;4.50;;;;;;;-142.13;100.00;58370.81;4986904;28;20483;-70
2021/03/09 10:23:11;;;;;;;9.93;5.33;;;;;;;-142.13;100.00;58370.81;4987070;28;20229;-70
2021/03/09 10:25:41;;;;;;;11.20;5.10;;;;;;;-142.13;100.00;58370.81;4985909;28;20962;-70
2021/03/09 10:28:08;;;;;;;8.00;5.53;;;;;;;-142.13;100.00;58370.81;4986564;28;20522;-70
2021/03/09 10:30:38;;;;;;;9.50;5.10;;;;;;;-142.13;100.00;58370.81;4979533;28;21096;-70
2021/03/09 10:33:10;;;;;;;16.48;6.28;;;;;;;-142.13;100.00;58370.81;4972527;28;20216;-70
2021/03/09 10:36:04;;;;;;;10.10;4.47;;;;;;;-142.13;100.00;58370.81;4961688;28;20758;-74
2021/03/09 10:38:32;;;;;;;8.35;4.28;;;;;;;-142.13;100.00;58370.81;4984720;28;20862;-70
2021/03/09 10:41:00;;;;;;;12.27;5.97;;;;;;;-142.13;100.00;58370.81;4993821;28;20313;-70
2021/03/09 10:43:41;;;;;;;7.57;5.38;;;;;;;-142.13;100.00;58370.81;4987517;28;20237;-70
2021/03/09 10:46:09;;;;;;;9.70;5.72;;;;;;;-142.13;100.00;58370.81;4990151;28;20413;-70
2021/03/09 10:48:37;;;;;;;8.30;5.80;;;;;;;-142.13;100.00;58370.81;4988447;28;20817;-70
2021/03/09 10:51:17;;;;;;;9.80;5.40;;;;;;;-142.13;100.00;58370.81;4992166;28;20193;-70
2021/03/09 10:53:46;;;;;;;13.30;5.80;;;;;;;-142.13;100.00;58370.81;4989757;28;20229;-69
2021/03/09 10:56:14;;;;;;;9.68;5.85;;;;;;;-142.13;100.00;58370.81;4983952;28;20950;-69
2021/03/09 10:58:41;;;;;;;10.02;6.85;;;;;;;-142.13;100.00;58370.81;4983414;28;20228;-69
2021/03/09 11:01:08;;;;;;;9.67;6.00;;;;;;;-142.13;100.00;58370.81;4990344;28;20185;-70
2021/03/09 11:03:35;;;;;;;15.40;6.50;;;;;;;-142.13;100.00;58370.81;4976881;28;21060;-70
2021/03/09 11:06:03;;;;;;;11.67;6.13;;;;;;;-142.13;100.00;58370.81;4993642;28;20782;-70
2021/03/09 11:08:30;;;;;;;10.05;6.10;;;;;;;-142.13;100.00;58370.81;4997029;28;20856;-70
2021/03/09 11:10:57;;;;;;;8.40;5.43;;;;;;;-142.13;100.00;58370.81;4986884;28;20600;-70
2021/03/09 11:13:24;;;;;;;11.00;5.43;;;;;;;-142.13;100.00;58370.81;4981777;28;20469;-70
2021/03/09 11:15:51;;;;;;;9.27;5.53;;;;;;;-142.13;100.00;58370.81;4981615;28;20429;-70
2021/03/09 11:18:25;;;;;;;12.93;6.20;;;;;;;-142.13;100.00;58370.81;4968667;28;20476;-71